createdAt,value
2018-12-15T00:00:02.021Z,94438.16
2018-12-15T00:02:29.628Z,94436.33
2018-12-15T00:04:57.635Z,94436.66
2018-12-15T00:07:25.239Z,94435.16
2018-12-15T00:09:53.728Z,94432.66
2018-12-15T00:12:21.410Z,94436.10
2018-12-15T00:14:49.160Z,94443.95
2018-12-15T00:17:16.807Z,94441.91
2018-12-15T00:19:45.276Z,94452.77
2018-12-15T00:22:13.567Z,94444.59
2018-12-15T00:24:41.454Z,94446.02
2018-12-15T00:27:09.076Z,94450.26
2018-12-15T00:29:36.838Z,94457.41
2018-12-15T00:32:04.665Z,94458.52
2018-12-15T00:34:32.254Z,94458.20
2018-12-15T00:37:00.089Z,94459.55
2018-12-15T00:39:27.953Z,94465.30
2018-12-15T00:41:55.833Z,94467.72
2018-12-15T00:44:23.488Z,94474.42
2018-12-15T00:46:51.207Z,94469.34
2018-12-15T00:49:18.861Z,94474.22
2018-12-15T00:51:46.479Z,94477.02
2018-12-15T00:54:14.124Z,94476.19
2018-12-15T00:56:41.823Z,94481.63
2018-12-15T00:59:09.390Z,94478.50
2018-12-15T01:01:37.199Z,94484.91
2018-12-15T01:04:04.802Z,94487.70
2018-12-15T01:06:32.505Z,94489.73
2018-12-15T01:09:00.648Z,94485.59
2018-12-15T01:11:28.405Z,94488.92
2018-12-15T01:13:56.316Z,94492.86
2018-12-15T01:16:23.961Z,94489.84
2018-12-15T01:18:51.772Z,94496.18
2018-12-15T01:21:19.533Z,94495.27
2018-12-15T01:23:47.111Z,94499.06
2018-12-15T01:26:14.756Z,94499.41
2018-12-15T01:28:42.357Z,94506.13
2018-12-15T01:31:09.988Z,94501.14
2018-12-15T01:33:37.633Z,94499.29
2018-12-15T01:36:05.211Z,94504.44
2018-12-15T01:38:32.997Z,94496.48
2018-12-15T01:41:00.622Z,94499.71
2018-12-15T01:43:28.261Z,94396.60
2018-12-15T01:45:55.903Z,94507.66
2018-12-15T01:48:23.785Z,94501.33
2018-12-15T01:50:51.452Z,94509.42
2018-12-15T01:53:19.022Z,94513.81
2018-12-15T01:55:46.655Z,94508.05
2018-12-15T01:58:14.291Z,94509.20
2018-12-15T02:00:41.934Z,94504.70
2018-12-15T02:03:09.731Z,94506.55
2018-12-15T02:05:37.350Z,94510.20
2018-12-15T02:08:04.980Z,94505.58
2018-12-15T02:10:32.564Z,94505.35
2018-12-15T02:13:00.218Z,94510.42
2018-12-15T02:15:27.852Z,94515.37
2018-12-15T02:17:55.679Z,94512.14
2018-12-15T02:20:23.447Z,94507.66
2018-12-15T02:22:51.311Z,94507.31
2018-12-15T02:25:18.918Z,94499.71
2018-12-15T02:27:46.545Z,94502.98
2018-12-15T02:30:14.156Z,94500.75
2018-12-15T02:32:41.789Z,94500.84
2018-12-15T02:35:09.426Z,94494.69
2018-12-15T02:37:37.107Z,94498.84
2018-12-15T02:40:05.762Z,94500.45
2018-12-15T02:42:33.475Z,94502.98
2018-12-15T02:45:01.059Z,94506.91
2018-12-15T02:47:28.628Z,94504.43
2018-12-15T02:49:56.927Z,94514.75
2018-12-15T02:52:24.513Z,94515.78
2018-12-15T02:54:52.155Z,94512.14
2018-12-15T02:57:19.842Z,94517.28
2018-12-15T02:59:47.433Z,94514.28
2018-12-15T03:02:15.240Z,94518.78
2018-12-15T03:04:43.018Z,94516.94
2018-12-15T03:07:10.632Z,94517.05
2018-12-15T03:09:38.427Z,94516.48
2018-12-15T03:12:06.225Z,94520.05
2018-12-15T03:14:33.872Z,94521.32
2018-12-15T03:17:04.173Z,94522.23
2018-12-15T03:19:32.667Z,94519.48
2018-12-15T03:22:00.534Z,94522.39
2018-12-15T03:24:28.221Z,94510.77
2018-12-15T03:26:55.869Z,94518.37
2018-12-15T03:29:23.592Z,94526.31
2018-12-15T03:31:51.241Z,94521.14
2018-12-15T03:34:18.905Z,94519.06
2018-12-15T03:36:46.545Z,94523.83
2018-12-15T03:39:14.326Z,94522.22
2018-12-15T03:41:41.966Z,94521.99
2018-12-15T03:44:09.566Z,94525.10
2018-12-15T03:46:37.198Z,94523.14
2018-12-15T03:49:04.832Z,94523.25
2018-12-15T03:51:32.553Z,94524.64
2018-12-15T03:54:00.187Z,94520.95
2018-12-15T03:56:27.773Z,94522.22
2018-12-15T03:58:55.410Z,94524.02
2018-12-15T04:01:22.994Z,94530.59
2018-12-15T04:03:50.597Z,94524.37
2018-12-15T04:06:18.225Z,94529.66
2018-12-15T04:08:45.856Z,94528.39
2018-12-15T04:11:13.427Z,94531.16
2018-12-15T04:13:41.082Z,94537.84
2018-12-15T04:16:08.720Z,94533.82
2018-12-15T04:18:36.313Z,94535.77
2018-12-15T04:21:04.016Z,94541.41
2018-12-15T04:23:31.599Z,94541.88
2018-12-15T04:25:59.235Z,94537.38
2018-12-15T04:28:26.851Z,94536.87
2018-12-15T04:30:54.482Z,94544.14
2018-12-15T04:33:22.137Z,94538.88
2018-12-15T04:35:49.705Z,94534.69
2018-12-15T04:38:17.345Z,94534.22
2018-12-15T04:40:44.968Z,94538.37
2018-12-15T04:43:12.643Z,94537.90
2018-12-15T04:45:40.313Z,94543.78
2018-12-15T04:48:11.339Z,94537.55
2018-12-15T04:50:37.557Z,94542.22
2018-12-15T04:53:05.294Z,94542.58
2018-12-15T04:55:32.868Z,94546.38
2018-12-15T04:58:00.521Z,94550.98
2018-12-15T05:00:28.133Z,94543.07
2018-12-15T05:02:55.715Z,94545.91
2018-12-15T05:05:23.368Z,94552.59
2018-12-15T05:07:50.946Z,94557.97
2018-12-15T05:10:18.550Z,94560.51
2018-12-15T05:12:46.217Z,94562.92
2018-12-15T05:15:13.809Z,94567.53
2018-12-15T05:17:41.688Z,94565.11
2018-12-15T05:20:09.338Z,94562.39
2018-12-15T05:22:37.143Z,94563.31
2018-12-15T05:25:05.427Z,94566.31
2018-12-15T05:27:33.012Z,94563.39
2018-12-15T05:30:00.582Z,94562.92
2018-12-15T05:32:28.196Z,94567.92
2018-12-15T05:34:55.814Z,94567.42
2018-12-15T05:37:23.455Z,94562.00
2018-12-15T05:39:51.077Z,94561.93
2018-12-15T05:42:18.707Z,94564.58
2018-12-15T05:44:46.291Z,94567.66
2018-12-15T05:47:13.937Z,94562.81
2018-12-15T05:49:41.523Z,94556.92
2018-12-15T05:52:09.262Z,94564.30
2018-12-15T05:54:36.902Z,94565.70
2018-12-15T05:57:04.515Z,94566.84
2018-12-15T05:59:32.284Z,94568.11
2018-12-15T06:02:01.557Z,94563.20
2018-12-15T06:04:29.205Z,94564.34
2018-12-15T06:06:56.781Z,94571.38
2018-12-15T06:09:24.460Z,94572.98
2018-12-15T06:11:52.090Z,94577.72
2018-12-15T06:14:19.763Z,94576.25
2018-12-15T06:16:47.333Z,94580.16
2018-12-15T06:19:14.959Z,94580.39
2018-12-15T06:21:42.548Z,94582.78
2018-12-15T06:24:10.245Z,94588.09
2018-12-15T06:26:37.905Z,94590.97
2018-12-15T06:29:05.548Z,94586.39
2018-12-15T06:31:33.126Z,94585.58
2018-12-15T06:34:00.754Z,94591.31
2018-12-15T06:36:28.425Z,94591.92
2018-12-15T06:38:56.055Z,94601.02
2018-12-15T06:41:23.693Z,94598.02
2018-12-15T06:43:51.311Z,94598.69
2018-12-15T06:46:18.982Z,94605.74
2018-12-15T06:48:46.612Z,94608.84
2018-12-15T06:51:14.389Z,94609.41
2018-12-15T06:53:41.954Z,94608.16
2018-12-15T06:56:09.609Z,94610.34
2018-12-15T06:58:37.256Z,94612.52
2018-12-15T07:01:04.888Z,94609.77
2018-12-15T07:03:32.531Z,94607.01
2018-12-15T07:06:00.804Z,94613.58
2018-12-15T07:08:28.533Z,94612.28
2018-12-15T07:10:56.506Z,94608.72
2018-12-15T07:13:24.213Z,94615.83
2018-12-15T07:15:52.072Z,94616.66
2018-12-15T07:18:19.798Z,94627.04
2018-12-15T07:20:47.568Z,94628.88
2018-12-15T07:23:15.330Z,94630.84
2018-12-15T07:25:43.252Z,94630.95
2018-12-15T07:28:10.912Z,94634.97
2018-12-15T07:30:38.698Z,94639.00
2018-12-15T07:33:06.506Z,94641.10
2018-12-15T07:35:34.151Z,94642.37
2018-12-15T07:38:01.917Z,94640.73
2018-12-15T07:40:30.932Z,94646.23
2018-12-15T07:42:59.139Z,94645.08
2018-12-15T07:45:26.922Z,94647.73
2018-12-15T07:47:54.618Z,94645.07
2018-12-15T07:50:22.356Z,94652.19
2018-12-15T07:52:50.154Z,94659.91
2018-12-15T07:55:18.136Z,94652.59
2018-12-15T07:57:45.983Z,94656.75
2018-12-15T08:00:13.670Z,94655.34
2018-12-15T08:02:41.369Z,94647.09
2018-12-15T08:05:09.037Z,94652.38
2018-12-15T08:07:37.653Z,94652.80
2018-12-15T08:10:06.591Z,94653.93
2018-12-15T08:12:39.440Z,94655.89
2018-12-15T08:15:07.670Z,94653.05
2018-12-15T08:17:35.441Z,94656.41
2018-12-15T08:20:04.255Z,94657.03
2018-12-15T08:22:32.035Z,94648.02
2018-12-15T08:24:59.718Z,94662.69
2018-12-15T08:27:27.825Z,94660.42
2018-12-15T08:29:56.045Z,94658.69
2018-12-15T08:32:23.993Z,94664.41
2018-12-15T08:34:51.654Z,94664.44
2018-12-15T08:37:19.310Z,94664.73
2018-12-15T08:39:47.064Z,94665.41
2018-12-15T08:42:14.857Z,94669.55
2018-12-15T08:44:42.535Z,94669.20
2018-12-15T08:47:10.389Z,94661.20
2018-12-15T08:49:39.467Z,94666.34
2018-12-15T08:52:07.365Z,94667.13
2018-12-15T08:54:35.076Z,94669.59
2018-12-15T08:57:02.663Z,94672.46
2018-12-15T08:59:30.339Z,94673.02
2018-12-15T09:01:58.196Z,94670.63
2018-12-15T09:04:25.841Z,94668.25
2018-12-15T09:06:53.640Z,94667.81
2018-12-15T09:09:21.510Z,94671.90
2018-12-15T09:11:49.781Z,94669.11
2018-12-15T09:14:17.437Z,94672.94
2018-12-15T09:16:45.421Z,94667.24
2018-12-15T09:19:14.267Z,94666.58
2018-12-15T09:21:42.176Z,94661.13
2018-12-15T09:24:09.855Z,94664.97
2018-12-15T09:26:37.510Z,94659.11
2018-12-15T09:29:05.138Z,94663.48
2018-12-15T09:31:33.410Z,94645.02
2018-12-15T09:34:01.070Z,94652.56
2018-12-15T09:36:28.751Z,94652.41
2018-12-15T09:38:56.330Z,94649.59
2018-12-15T09:41:24.164Z,94644.77
2018-12-15T09:43:51.908Z,94632.17
2018-12-15T09:46:19.788Z,94635.30
2018-12-15T09:48:47.448Z,94635.72
2018-12-15T09:51:16.256Z,94629.81
2018-12-15T09:53:44.923Z,94630.22
2018-12-15T09:56:13.570Z,94631.41
2018-12-15T09:58:41.550Z,94636.62
2018-12-15T10:01:09.345Z,94630.17
2018-12-15T10:03:37.100Z,94640.39
2018-12-15T10:06:04.799Z,94628.93
2018-12-15T10:08:32.612Z,94623.47
2018-12-15T10:11:00.298Z,94621.83
2018-12-15T10:13:28.222Z,94619.27
2018-12-15T10:15:55.960Z,94616.28
2018-12-15T10:18:24.030Z,94615.33
2018-12-15T10:20:51.785Z,94605.55
2018-12-15T10:23:19.456Z,94603.20
2018-12-15T10:25:47.198Z,94598.53
2018-12-15T10:28:14.951Z,94597.79
2018-12-15T10:30:48.132Z,94589.08
2018-12-15T10:33:15.912Z,94588.06
2018-12-15T10:35:43.530Z,94585.74
2018-12-15T10:38:11.201Z,94590.50
2018-12-15T10:40:38.783Z,94586.69
2018-12-15T10:43:06.582Z,94586.68
2018-12-15T10:45:34.178Z,94584.13
2018-12-15T10:48:03.048Z,94585.50
2018-12-15T10:50:30.812Z,94582.99
2018-12-15T10:52:58.678Z,94582.41
2018-12-15T10:55:27.554Z,94579.94
2018-12-15T10:57:55.238Z,94575.77
2018-12-15T11:00:26.680Z,94573.20
2018-12-15T11:02:54.495Z,94577.86
2018-12-15T11:05:22.226Z,94569.11
2018-12-15T11:07:49.908Z,94572.13
2018-12-15T11:10:17.848Z,94567.80
2018-12-15T11:12:45.508Z,94563.14
2018-12-15T11:15:13.331Z,94563.45
2018-12-15T11:17:40.909Z,94562.25
2018-12-15T11:20:08.702Z,94561.91
2018-12-15T11:22:38.309Z,94568.34
2018-12-15T11:25:06.080Z,94565.01
2018-12-15T11:27:33.939Z,94567.80
2018-12-15T11:30:01.820Z,94558.49
2018-12-15T11:32:29.572Z,94553.59
2018-12-15T11:34:57.230Z,94557.10
2018-12-15T11:37:24.877Z,94556.61
2018-12-15T11:39:52.454Z,94556.75
2018-12-15T11:42:20.106Z,94553.25
2018-12-15T11:44:47.736Z,94555.27
2018-12-15T11:47:15.541Z,94554.39
2018-12-15T11:49:43.713Z,94547.95
2018-12-15T11:52:11.795Z,94555.27
2018-12-15T11:54:39.414Z,94549.89
2018-12-15T11:57:07.031Z,94549.70
2018-12-15T11:59:34.679Z,94545.05
2018-12-15T12:02:02.346Z,94544.52
2018-12-15T12:04:29.953Z,94547.02
2018-12-15T12:06:57.593Z,94549.53
2018-12-15T12:09:25.431Z,94548.01
2018-12-15T12:11:53.282Z,94548.12
2018-12-15T12:14:20.912Z,94542.73
2018-12-15T12:16:48.534Z,94537.59
2018-12-15T12:19:16.192Z,94540.02
2018-12-15T12:21:44.046Z,94535.36
2018-12-15T12:24:11.669Z,94535.08
2018-12-15T12:26:39.308Z,94532.22
2018-12-15T12:29:06.932Z,94527.90
2018-12-15T12:31:34.800Z,94530.80
2018-12-15T12:34:02.430Z,94531.94
2018-12-15T12:36:30.059Z,94526.09
2018-12-15T12:38:57.732Z,94526.66
2018-12-15T12:41:26.362Z,94526.23
2018-12-15T12:43:54.083Z,94526.36
2018-12-15T12:46:21.767Z,94522.82
2018-12-15T12:48:49.443Z,94518.56
2018-12-15T12:51:17.034Z,94518.89
2018-12-15T12:53:45.871Z,94523.20
2018-12-15T12:56:13.698Z,94518.81
2018-12-15T12:58:41.440Z,94518.58
2018-12-15T13:01:09.413Z,94518.67
2018-12-15T13:03:37.220Z,94524.30
2018-12-15T13:06:04.914Z,94519.53
2018-12-15T13:08:32.564Z,94519.48
2018-12-15T13:11:00.182Z,94523.39
2018-12-15T13:13:28.836Z,94526.85
2018-12-15T13:15:56.516Z,94527.55
2018-12-15T13:18:24.279Z,94533.59
2018-12-15T13:20:52.088Z,94526.27
2018-12-15T13:23:20.008Z,94537.75
2018-12-15T13:25:47.634Z,94533.56
2018-12-15T13:28:15.267Z,94540.64
2018-12-15T13:30:43.317Z,94540.50
2018-12-15T13:33:22.847Z,94541.11
2018-12-15T13:35:50.513Z,94540.50
2018-12-15T13:38:18.177Z,94541.05
2018-12-15T13:40:45.891Z,94543.52
2018-12-15T13:43:13.704Z,94548.08
2018-12-15T13:45:42.307Z,94547.88
2018-12-15T13:48:09.963Z,94547.20
2018-12-15T13:50:37.563Z,94545.63
2018-12-15T13:53:05.261Z,94544.23
2018-12-15T13:55:32.910Z,94550.06
2018-12-15T13:58:00.696Z,94548.05
2018-12-15T14:00:28.562Z,94552.48
2018-12-15T14:02:56.329Z,94548.55
2018-12-15T14:05:23.930Z,94550.15
2018-12-15T14:07:52.332Z,94551.44
2018-12-15T14:10:20.058Z,94551.61
2018-12-15T14:12:47.795Z,94549.36
2018-12-15T14:15:15.424Z,94548.33
2018-12-15T14:17:43.212Z,94552.14
2018-12-15T14:20:16.578Z,94555.02
2018-12-15T14:22:40.805Z,94554.45
2018-12-15T14:25:08.482Z,94550.67
2018-12-15T14:27:36.156Z,94549.27
2018-12-15T14:30:04.991Z,94552.75
2018-12-15T14:32:32.643Z,94547.92
2018-12-15T14:35:00.557Z,94560.76
2018-12-15T14:37:29.967Z,94557.07
2018-12-15T14:39:57.817Z,94558.75
2018-12-15T14:42:25.791Z,94560.28
2018-12-15T14:44:53.985Z,94557.67
2018-12-15T14:47:21.905Z,94553.67
2018-12-15T14:49:49.553Z,94559.61
2018-12-15T14:52:17.222Z,94560.44
2018-12-15T14:54:44.942Z,94559.37
2018-12-15T14:57:12.692Z,94559.72
2018-12-15T14:59:41.232Z,94563.20
2018-12-15T15:02:09.334Z,94567.15
2018-12-15T15:04:41.120Z,94566.34
2018-12-15T15:07:11.173Z,94567.88
2018-12-15T15:09:39.023Z,94572.89
2018-12-15T15:12:06.715Z,94574.84
2018-12-15T15:14:34.965Z,94566.19
2018-12-15T15:17:06.442Z,94563.91
2018-12-15T15:19:34.724Z,94563.19
2018-12-15T15:22:02.731Z,94564.98
2018-12-15T15:24:30.430Z,94558.87
2018-12-15T15:26:59.235Z,94562.33
2018-12-15T15:29:27.058Z,94558.30
2018-12-15T15:31:54.890Z,94557.53
2018-12-15T15:34:22.726Z,94559.94
2018-12-15T15:36:50.492Z,94562.40
2018-12-15T15:39:18.512Z,94567.94
2018-12-15T15:41:48.093Z,94560.95
2018-12-15T15:44:15.834Z,94568.99
2018-12-15T15:46:43.580Z,94567.17
2018-12-15T15:49:11.510Z,94563.83
2018-12-15T15:51:39.128Z,94559.46
2018-12-15T15:54:06.904Z,94561.09
2018-12-15T15:56:34.611Z,94567.97
2018-12-15T15:59:02.235Z,94568.56
2018-12-15T16:01:29.941Z,94561.03
2018-12-15T16:03:57.673Z,94563.91
2018-12-15T16:06:25.259Z,94565.70
2018-12-15T16:08:52.982Z,94567.08
2018-12-15T16:11:21.659Z,94568.51
2018-12-15T16:13:49.375Z,94560.59
2018-12-15T16:16:28.829Z,94565.90
2018-12-15T16:18:56.559Z,94566.50
2018-12-15T16:21:24.295Z,94569.37
2018-12-15T16:23:51.933Z,94573.28
2018-12-15T16:26:19.707Z,94575.94
2018-12-15T16:28:47.431Z,94575.62
2018-12-15T16:31:15.382Z,94572.61
2018-12-15T16:33:43.071Z,94572.57
2018-12-15T16:36:10.822Z,94570.55
2018-12-15T16:38:38.566Z,94580.91
2018-12-15T16:41:06.393Z,94582.46
2018-12-15T16:43:34.789Z,94579.70
2018-12-15T16:46:02.416Z,94582.15
2018-12-15T16:48:30.136Z,94577.62
2018-12-15T16:50:58.127Z,94577.75
2018-12-15T16:53:25.908Z,94581.81
2018-12-15T16:55:53.635Z,94581.41
2018-12-15T16:58:21.786Z,94580.07
2018-12-15T17:00:49.773Z,94581.78
2018-12-15T17:03:17.548Z,94584.81
2018-12-15T17:05:45.375Z,94585.23
2018-12-15T17:08:13.377Z,94578.67
2018-12-15T17:10:41.081Z,94584.08
2018-12-15T17:13:08.728Z,94585.12
2018-12-15T17:15:36.546Z,94587.94
2018-12-15T17:18:04.259Z,94587.69
2018-12-15T17:20:32.057Z,94586.87
2018-12-15T17:22:59.666Z,94589.28
2018-12-15T17:25:28.123Z,94589.42
2018-12-15T17:27:55.924Z,94576.92
2018-12-15T17:30:23.791Z,94580.84
2018-12-15T17:32:53.567Z,94576.91
2018-12-15T17:35:22.442Z,94585.33
2018-12-15T17:37:51.161Z,94578.55
2018-12-15T17:40:18.859Z,94580.07
2018-12-15T17:42:46.762Z,94581.09
2018-12-15T17:45:15.159Z,94576.60
2018-12-15T17:47:42.981Z,94578.14
2018-12-15T17:50:10.943Z,94577.70
2018-12-15T17:52:38.976Z,94572.74
2018-12-15T17:55:07.063Z,94569.28
2018-12-15T17:57:36.080Z,94575.04
2018-12-15T18:00:06.614Z,94573.33
2018-12-15T18:02:34.434Z,94569.84
2018-12-15T18:05:02.678Z,94577.80
2018-12-15T18:07:30.364Z,94575.77
2018-12-15T18:09:58.682Z,94581.78
2018-12-15T18:12:26.447Z,94584.42
2018-12-15T18:14:54.200Z,94582.19
2018-12-15T18:17:21.956Z,94578.82
2018-12-15T18:19:49.768Z,94580.68
2018-12-15T18:22:17.412Z,94579.80
2018-12-15T18:24:45.114Z,94579.47
2018-12-15T18:27:12.802Z,94581.19
2018-12-15T18:29:40.445Z,94574.84
2018-12-15T18:32:08.675Z,94575.50
2018-12-15T18:34:36.285Z,94575.99
2018-12-15T18:37:04.065Z,94568.38
2018-12-15T18:39:32.064Z,94570.69
2018-12-15T18:41:59.830Z,94564.14
2018-12-15T18:44:28.694Z,94563.55
2018-12-15T18:46:56.795Z,94568.28
2018-12-15T18:49:24.591Z,94569.20
2018-12-15T18:51:53.561Z,94568.39
2018-12-15T18:54:24.297Z,94567.94
2018-12-15T18:56:53.165Z,94569.25
2018-12-15T18:59:21.966Z,94568.11
2018-12-15T19:01:50.838Z,94556.92
2018-12-15T19:04:18.723Z,94556.51
2018-12-15T19:06:47.260Z,94557.09
2018-12-15T19:09:15.411Z,94553.09
2018-12-15T19:11:46.806Z,94556.31
2018-12-15T19:14:15.164Z,94552.40
2018-12-15T19:16:42.907Z,94549.55
2018-12-15T19:19:10.567Z,94548.83
2018-12-15T19:21:38.249Z,94545.38
2018-12-15T19:24:06.941Z,94545.61
2018-12-15T19:26:34.639Z,94542.17
2018-12-15T19:29:02.348Z,94535.73
2018-12-15T19:31:29.953Z,94538.15
2018-12-15T19:33:57.705Z,94540.91
2018-12-15T19:36:25.598Z,94537.54
2018-12-15T19:38:54.706Z,94534.80
2018-12-15T19:41:22.539Z,94534.36
2018-12-15T19:43:51.207Z,94531.59
2018-12-15T19:46:18.861Z,94527.22
2018-12-15T19:48:46.594Z,94532.06
2018-12-15T19:51:14.391Z,94524.70
2018-12-15T19:53:42.179Z,94525.60
2018-12-15T19:56:09.905Z,94517.88
2018-12-15T19:58:37.616Z,94517.16
2018-12-15T20:01:05.220Z,94516.95
2018-12-15T20:03:33.032Z,94514.30
2018-12-15T20:06:00.754Z,94514.28
2018-12-15T20:08:28.348Z,94521.84
2018-12-15T20:10:56.173Z,94517.36
2018-12-15T20:13:24.660Z,94518.70
2018-12-15T20:15:52.350Z,94515.41
2018-12-15T20:18:21.270Z,94510.70
2018-12-15T20:20:49.177Z,94505.52
2018-12-15T20:23:16.814Z,94508.27
2018-12-15T20:25:44.512Z,94502.38
2018-12-15T20:28:12.791Z,94498.72
2018-12-15T20:30:40.701Z,94500.84
2018-12-15T20:33:08.382Z,94502.00
2018-12-15T20:35:36.196Z,94498.34
2018-12-15T20:38:03.841Z,94490.41
2018-12-15T20:40:32.725Z,94493.86
2018-12-15T20:43:00.389Z,94486.08
2018-12-15T20:45:28.079Z,94483.47
2018-12-15T20:47:55.748Z,94482.08
2018-12-15T20:50:23.428Z,94478.62
2018-12-15T20:52:51.262Z,94476.11
2018-12-15T20:55:19.028Z,94474.14
2018-12-15T20:57:46.728Z,94471.61
2018-12-15T21:00:14.394Z,94468.39
2018-12-15T21:02:44.080Z,94470.06
2018-12-15T21:05:11.683Z,94465.65
2018-12-15T21:07:39.400Z,94457.72
2018-12-15T21:10:07.528Z,94450.25
2018-12-15T21:12:35.141Z,94442.55
2018-12-15T21:15:07.720Z,94443.81
2018-12-15T21:17:35.909Z,94434.03
2018-12-15T21:20:05.391Z,94436.40
2018-12-15T21:22:33.073Z,94435.48
2018-12-15T21:25:00.703Z,94433.66
2018-12-15T21:27:28.508Z,94432.20
2018-12-15T21:29:56.119Z,94439.47
2018-12-15T21:32:24.605Z,94435.23
2018-12-15T21:34:52.325Z,94445.02
2018-12-15T21:37:20.047Z,94435.16
2018-12-15T21:39:47.753Z,94433.64
2018-12-15T21:42:15.385Z,94425.36
2018-12-15T21:44:43.174Z,94430.16
2018-12-15T21:47:10.880Z,94427.05
2018-12-15T21:49:38.560Z,94423.50
2018-12-15T21:52:06.336Z,94423.95
2018-12-15T21:54:33.976Z,94421.64
2018-12-15T21:57:01.715Z,94426.13
2018-12-15T21:59:29.343Z,94428.79
2018-12-15T22:01:57.231Z,94426.59
2018-12-15T22:04:25.213Z,94425.22
2018-12-15T22:06:52.944Z,94420.17
2018-12-15T22:09:20.579Z,94417.30
2018-12-15T22:11:48.223Z,94411.24
2018-12-15T22:14:15.903Z,94414.73
2018-12-15T22:16:44.028Z,94412.10
2018-12-15T22:19:11.701Z,94408.96
2018-12-15T22:21:39.360Z,94405.41
2018-12-15T22:24:07.225Z,94407.94
2018-12-15T22:26:34.819Z,94404.72
2018-12-15T22:29:02.427Z,94410.09
2018-12-15T22:31:30.162Z,94404.13
2018-12-15T22:33:57.807Z,94402.45
2018-12-15T22:36:25.514Z,94400.69
2018-12-15T22:38:54.401Z,94394.56
2018-12-15T22:41:22.270Z,94399.93
2018-12-15T22:43:49.943Z,94387.71
2018-12-15T22:46:17.760Z,94379.45
2018-12-15T22:48:45.363Z,94387.60
2018-12-15T22:51:13.029Z,94387.95
2018-12-15T22:53:40.650Z,94373.44
2018-12-15T22:56:08.455Z,94375.72
2018-12-15T22:58:36.233Z,94372.28
2018-12-15T23:01:06.526Z,94371.59
2018-12-15T23:03:34.207Z,94370.02
2018-12-15T23:06:01.843Z,94370.83
2018-12-15T23:08:29.509Z,94369.47
2018-12-15T23:10:57.215Z,94364.45
2018-12-15T23:13:24.829Z,94361.11
2018-12-15T23:15:52.540Z,94360.52
2018-12-15T23:18:21.367Z,94356.95
2018-12-15T23:20:48.993Z,94359.30
2018-12-15T23:23:16.829Z,94356.27
2018-12-15T23:25:44.540Z,94355.06
2018-12-15T23:28:12.415Z,94354.56
2018-12-15T23:30:40.117Z,94353.58
2018-12-15T23:33:07.858Z,94346.61
2018-12-15T23:35:35.537Z,94346.33
2018-12-15T23:38:03.191Z,94347.52
2018-12-15T23:40:30.817Z,94354.59
2018-12-15T23:42:58.508Z,94351.13
2018-12-15T23:45:26.083Z,94350.81
2018-12-15T23:47:53.819Z,94345.09
2018-12-15T23:50:21.448Z,94343.45
2018-12-15T23:52:49.160Z,94344.86
2018-12-15T23:55:17.061Z,94346.28
2018-12-15T23:57:44.779Z,94343.50
